sensor_id;sensor_type;location;lat;lon;timestamp;temperature;humidity
43346;DHT22;28937;51.160;4.146;2023-11-22T00:01:05;12.20;99.40
43346;DHT22;28937;51.160;4.146;2023-11-22T00:03:31;12.20;99.30
43346;DHT22;28937;51.160;4.146;2023-11-22T00:05:57;12.20;99.30
43346;DHT22;28937;51.160;4.146;2023-11-22T00:08:22;12.20;99.20
43346;DHT22;28937;51.160;4.146;2023-11-22T00:10:48;12.20;99.20
43346;DHT22;28937;51.160;4.146;2023-11-22T00:13:13;12.10;99.30
43346;DHT22;28937;51.160;4.146;2023-11-22T00:15:39;12.10;99.30
43346;DHT22;28937;51.160;4.146;2023-11-22T00:18:05;12.10;99.40
43346;DHT22;28937;51.160;4.146;2023-11-22T00:20:31;12.00;99.40
43346;DHT22;28937;51.160;4.146;2023-11-22T00:22:56;12.00;99.40
43346;DHT22;28937;51.160;4.146;2023-11-22T00:25:22;12.00;99.40
43346;DHT22;28937;51.160;4.146;2023-11-22T00:27:48;12.00;99.40
43346;DHT22;28937;51.160;4.146;2023-11-22T00:30:14;12.00;99.70
43346;DHT22;28937;51.160;4.146;2023-11-22T00:32:40;11.90;99.50
43346;DHT22;28937;51.160;4.146;2023-11-22T00:35:09;11.90;99.50
43346;DHT22;28937;51.160;4.146;2023-11-22T00:37:34;11.90;99.40
43346;DHT22;28937;51.160;4.146;2023-11-22T00:40:00;11.80;99.40
43346;DHT22;28937;51.160;4.146;2023-11-22T00:42:31;11.80;99.50
43346;DHT22;28937;51.160;4.146;2023-11-22T00:44:57;11.90;99.40
43346;DHT22;28937;51.160;4.146;2023-11-22T00:47:22;11.90;99.30
43346;DHT22;28937;51.160;4.146;2023-11-22T00:49:48;11.80;99.40
43346;DHT22;28937;51.160;4.146;2023-11-22T00:52:14;11.80;99.40
43346;DHT22;28937;51.160;4.146;2023-11-22T00:54:39;11.80;99.20
43346;DHT22;28937;51.160;4.146;2023-11-22T00:57:05;11.70;99.30
43346;DHT22;28937;51.160;4.146;2023-11-22T00:59:32;11.80;99.30
43346;DHT22;28937;51.160;4.146;2023-11-22T01:01:58;11.70;99.20
43346;DHT22;28937;51.160;4.146;2023-11-22T01:04:24;11.70;99.20
43346;DHT22;28937;51.160;4.146;2023-11-22T01:06:49;11.70;99.30
43346;DHT22;28937;51.160;4.146;2023-11-22T01:09:15;11.70;99.20
43346;DHT22;28937;51.160;4.146;2023-11-22T01:11:40;11.70;99.30
43346;DHT22;28937;51.160;4.146;2023-11-22T01:14:06;11.70;99.30
43346;DHT22;28937;51.160;4.146;2023-11-22T01:16:32;11.60;99.20
43346;DHT22;28937;51.160;4.146;2023-11-22T01:18:57;11.60;99.30
43346;DHT22;28937;51.160;4.146;2023-11-22T01:21:23;11.50;99.30
43346;DHT22;28937;51.160;4.146;2023-11-22T01:23:48;11.60;99.30
43346;DHT22;28937;51.160;4.146;2023-11-22T01:26:14;11.60;99.20
43346;DHT22;28937;51.160;4.146;2023-11-22T01:28:39;11.50;99.20
43346;DHT22;28937;51.160;4.146;2023-11-22T01:31:11;11.50;99.40
43346;DHT22;28937;51.160;4.146;2023-11-22T01:33:36;11.50;99.30
43346;DHT22;28937;51.160;4.146;2023-11-22T01:36:02;11.40;99.20
43346;DHT22;28937;51.160;4.146;2023-11-22T01:38:28;11.40;99.10
43346;DHT22;28937;51.160;4.146;2023-11-22T01:40:53;11.40;99.20
43346;DHT22;28937;51.160;4.146;2023-11-22T01:43:20;11.30;99.20
43346;DHT22;28937;51.160;4.146;2023-11-22T01:45:49;11.30;99.20
43346;DHT22;28937;51.160;4.146;2023-11-22T01:48:15;11.30;99.40
43346;DHT22;28937;51.160;4.146;2023-11-22T01:50:42;11.30;99.40
43346;DHT22;28937;51.160;4.146;2023-11-22T01:53:11;11.30;99.30
43346;DHT22;28937;51.160;4.146;2023-11-22T01:55:38;11.30;99.20
43346;DHT22;28937;51.160;4.146;2023-11-22T01:58:04;11.30;99.20
43346;DHT22;28937;51.160;4.146;2023-11-22T02:00:35;11.30;99.10
43346;DHT22;28937;51.160;4.146;2023-11-22T02:03:02;11.30;99.00
43346;DHT22;28937;51.160;4.146;2023-11-22T02:05:27;11.20;99.10
43346;DHT22;28937;51.160;4.146;2023-11-22T02:07:53;11.20;99.10
43346;DHT22;28937;51.160;4.146;2023-11-22T02:10:19;11.10;99.20
43346;DHT22;28937;51.160;4.146;2023-11-22T02:12:44;11.10;99.20
43346;DHT22;28937;51.160;4.146;2023-11-22T02:15:10;11.10;99.10
43346;DHT22;28937;51.160;4.146;2023-11-22T02:17:36;11.10;99.30
43346;DHT22;28937;51.160;4.146;2023-11-22T02:20:02;11.10;99.30
43346;DHT22;28937;51.160;4.146;2023-11-22T02:22:31;11.10;99.10
43346;DHT22;28937;51.160;4.146;2023-11-22T02:24:57;11.10;99.20
43346;DHT22;28937;51.160;4.146;2023-11-22T02:27:23;11.10;99.20
43346;DHT22;28937;51.160;4.146;2023-11-22T02:29:48;11.10;99.30
43346;DHT22;28937;51.160;4.146;2023-11-22T02:32:15;11.00;99.20
43346;DHT22;28937;51.160;4.146;2023-11-22T02:34:41;11.10;99.20
43346;DHT22;28937;51.160;4.146;2023-11-22T02:37:06;11.00;99.20
43346;DHT22;28937;51.160;4.146;2023-11-22T02:39:52;11.10;99.10
43346;DHT22;28937;51.160;4.146;2023-11-22T02:42:19;11.00;99.20
43346;DHT22;28937;51.160;4.146;2023-11-22T02:44:45;10.90;99.30
43346;DHT22;28937;51.160;4.146;2023-11-22T02:47:10;10.90;99.40
43346;DHT22;28937;51.160;4.146;2023-11-22T02:49:36;10.80;99.60
43346;DHT22;28937;51.160;4.146;2023-11-22T02:52:02;10.80;99.60
43346;DHT22;28937;51.160;4.146;2023-11-22T02:54:27;10.80;99.70
43346;DHT22;28937;51.160;4.146;2023-11-22T02:56:54;10.80;99.70
43346;DHT22;28937;51.160;4.146;2023-11-22T02:59:19;10.80;99.70
43346;DHT22;28937;51.160;4.146;2023-11-22T03:01:45;10.80;99.50
43346;DHT22;28937;51.160;4.146;2023-11-22T03:04:11;10.70;99.60
43346;DHT22;28937;51.160;4.146;2023-11-22T03:06:36;10.70;99.60
43346;DHT22;28937;51.160;4.146;2023-11-22T03:09:02;10.70;99.50
43346;DHT22;28937;51.160;4.146;2023-11-22T03:11:29;10.60;99.50
43346;DHT22;28937;51.160;4.146;2023-11-22T03:13:55;10.70;99.50
43346;DHT22;28937;51.160;4.146;2023-11-22T03:16:20;10.60;99.60
43346;DHT22;28937;51.160;4.146;2023-11-22T03:18:46;10.50;99.90
43346;DHT22;28937;51.160;4.146;2023-11-22T03:21:11;10.40;99.90
43346;DHT22;28937;51.160;4.146;2023-11-22T03:23:37;10.50;99.90
43346;DHT22;28937;51.160;4.146;2023-11-22T03:26:05;10.50;99.90
43346;DHT22;28937;51.160;4.146;2023-11-22T03:28:31;10.40;99.90
43346;DHT22;28937;51.160;4.146;2023-11-22T03:30:58;10.50;99.90
43346;DHT22;28937;51.160;4.146;2023-11-22T03:33:24;10.50;99.90
43346;DHT22;28937;51.160;4.146;2023-11-22T03:35:50;10.60;99.80
43346;DHT22;28937;51.160;4.146;2023-11-22T03:38:15;10.60;99.70
43346;DHT22;28937;51.160;4.146;2023-11-22T03:40:41;10.50;99.60
43346;DHT22;28937;51.160;4.146;2023-11-22T03:43:06;10.40;99.50
43346;DHT22;28937;51.160;4.146;2023-11-22T03:45:35;10.50;99.60
43346;DHT22;28937;51.160;4.146;2023-11-22T03:48:00;10.50;99.50
43346;DHT22;28937;51.160;4.146;2023-11-22T03:50:26;10.40;99.70
43346;DHT22;28937;51.160;4.146;2023-11-22T03:52:52;10.50;99.60
43346;DHT22;28937;51.160;4.146;2023-11-22T03:55:17;10.40;99.50
43346;DHT22;28937;51.160;4.146;2023-11-22T03:57:43;10.40;99.60
43346;DHT22;28937;51.160;4.146;2023-11-22T04:00:09;10.40;99.70
43346;DHT22;28937;51.160;4.146;2023-11-22T04:02:35;10.40;99.70
43346;DHT22;28937;51.160;4.146;2023-11-22T04:05:00;10.50;99.70
43346;DHT22;28937;51.160;4.146;2023-11-22T04:07:26;10.40;99.90
43346;DHT22;28937;51.160;4.146;2023-11-22T04:09:52;10.40;99.80
43346;DHT22;28937;51.160;4.146;2023-11-22T04:12:17;10.30;99.90
43346;DHT22;28937;51.160;4.146;2023-11-22T04:14:43;10.30;99.90
43346;DHT22;28937;51.160;4.146;2023-11-22T04:17:09;10.30;99.90
43346;DHT22;28937;51.160;4.146;2023-11-22T04:19:34;10.30;99.90
43346;DHT22;28937;51.160;4.146;2023-11-22T04:22:00;10.40;99.90
43346;DHT22;28937;51.160;4.146;2023-11-22T04:24:26;10.40;99.90
43346;DHT22;28937;51.160;4.146;2023-11-22T04:26:52;10.30;99.90
43346;DHT22;28937;51.160;4.146;2023-11-22T04:29:17;10.20;99.90
43346;DHT22;28937;51.160;4.146;2023-11-22T04:31:43;10.30;99.90
43346;DHT22;28937;51.160;4.146;2023-11-22T04:34:09;10.30;99.90
43346;DHT22;28937;51.160;4.146;2023-11-22T04:36:34;10.30;99.90
43346;DHT22;28937;51.160;4.146;2023-11-22T04:39:00;10.40;99.90
43346;DHT22;28937;51.160;4.146;2023-11-22T04:41:25;10.30;99.90
43346;DHT22;28937;51.160;4.146;2023-11-22T04:43:51;10.30;99.90
43346;DHT22;28937;51.160;4.146;2023-11-22T04:46:17;10.30;99.90
43346;DHT22;28937;51.160;4.146;2023-11-22T04:48:42;10.30;99.90
43346;DHT22;28937;51.160;4.146;2023-11-22T04:51:10;10.30;99.90
43346;DHT22;28937;51.160;4.146;2023-11-22T04:53:36;10.30;99.90
43346;DHT22;28937;51.160;4.146;2023-11-22T04:56:01;10.30;99.90
43346;DHT22;28937;51.160;4.146;2023-11-22T04:58:31;10.30;99.90
43346;DHT22;28937;51.160;4.146;2023-11-22T05:00:57;10.30;99.90
43346;DHT22;28937;51.160;4.146;2023-11-22T05:03:23;10.30;99.90
43346;DHT22;28937;51.160;4.146;2023-11-22T05:05:49;10.20;99.90
43346;DHT22;28937;51.160;4.146;2023-11-22T05:08:14;10.20;99.90
43346;DHT22;28937;51.160;4.146;2023-11-22T05:10:40;10.30;99.90
43346;DHT22;28937;51.160;4.146;2023-11-22T05:13:06;10.30;99.90
43346;DHT22;28937;51.160;4.146;2023-11-22T05:15:31;10.30;99.90
43346;DHT22;28937;51.160;4.146;2023-11-22T05:17:57;10.20;99.90
43346;DHT22;28937;51.160;4.146;2023-11-22T05:20:22;10.30;99.90
43346;DHT22;28937;51.160;4.146;2023-11-22T05:22:48;10.30;99.90
43346;DHT22;28937;51.160;4.146;2023-11-22T05:25:13;10.20;99.90
43346;DHT22;28937;51.160;4.146;2023-11-22T05:27:39;10.10;99.90
43346;DHT22;28937;51.160;4.146;2023-11-22T05:30:05;10.40;99.90
43346;DHT22;28937;51.160;4.146;2023-11-22T05:32:31;10.60;99.90
43346;DHT22;28937;51.160;4.146;2023-11-22T05:34:56;10.70;99.90
43346;DHT22;28937;51.160;4.146;2023-11-22T05:37:23;10.90;99.90
43346;DHT22;28937;51.160;4.146;2023-11-22T05:39:49;11.00;99.90
43346;DHT22;28937;51.160;4.146;2023-11-22T05:42:14;11.00;99.90
43346;DHT22;28937;51.160;4.146;2023-11-22T05:44:40;11.00;99.90
43346;DHT22;28937;51.160;4.146;2023-11-22T05:47:06;11.00;99.90
43346;DHT22;28937;51.160;4.146;2023-11-22T05:49:33;11.00;99.90
43346;DHT22;28937;51.160;4.146;2023-11-22T05:51:59;11.10;99.90
43346;DHT22;28937;51.160;4.146;2023-11-22T05:54:24;11.10;99.90
43346;DHT22;28937;51.160;4.146;2023-11-22T05:56:50;11.20;99.90
43346;DHT22;28937;51.160;4.146;2023-11-22T05:59:15;11.20;99.90
43346;DHT22;28937;51.160;4.146;2023-11-22T06:01:41;11.30;99.90
43346;DHT22;28937;51.160;4.146;2023-11-22T06:04:06;11.40;99.90
43346;DHT22;28937;51.160;4.146;2023-11-22T06:06:35;11.40;99.90
43346;DHT22;28937;51.160;4.146;2023-11-22T06:09:00;11.40;99.90
43346;DHT22;28937;51.160;4.146;2023-11-22T06:11:26;11.40;99.90
43346;DHT22;28937;51.160;4.146;2023-11-22T06:13:51;11.40;99.90
43346;DHT22;28937;51.160;4.146;2023-11-22T06:16:17;11.40;99.90
43346;DHT22;28937;51.160;4.146;2023-11-22T06:18:43;11.30;99.90
43346;DHT22;28937;51.160;4.146;2023-11-22T06:21:10;11.40;99.90
43346;DHT22;28937;51.160;4.146;2023-11-22T06:23:35;11.30;99.90
43346;DHT22;28937;51.160;4.146;2023-11-22T06:26:01;11.30;99.90
43346;DHT22;28937;51.160;4.146;2023-11-22T06:28:27;11.30;99.90
43346;DHT22;28937;51.160;4.146;2023-11-22T06:30:54;11.30;99.90
43346;DHT22;28937;51.160;4.146;2023-11-22T06:33:20;11.30;99.90
43346;DHT22;28937;51.160;4.146;2023-11-22T06:35:45;11.30;99.80
43346;DHT22;28937;51.160;4.146;2023-11-22T06:38:11;11.30;99.80
43346;DHT22;28937;51.160;4.146;2023-11-22T06:40:37;11.30;99.90
43346;DHT22;28937;51.160;4.146;2023-11-22T06:43:02;11.30;99.90
43346;DHT22;28937;51.160;4.146;2023-11-22T06:45:32;11.30;99.90
43346;DHT22;28937;51.160;4.146;2023-11-22T06:47:58;11.30;99.80
43346;DHT22;28937;51.160;4.146;2023-11-22T06:50:24;11.30;99.90
43346;DHT22;28937;51.160;4.146;2023-11-22T06:52:50;11.30;99.80
43346;DHT22;28937;51.160;4.146;2023-11-22T06:55:16;11.30;99.80
43346;DHT22;28937;51.160;4.146;2023-11-22T06:57:41;11.30;99.90
43346;DHT22;28937;51.160;4.146;2023-11-22T07:00:07;11.20;99.90
43346;DHT22;28937;51.160;4.146;2023-11-22T07:02:35;11.20;99.90
43346;DHT22;28937;51.160;4.146;2023-11-22T07:05:05;11.20;99.90
43346;DHT22;28937;51.160;4.146;2023-11-22T07:07:35;11.10;99.90
43346;DHT22;28937;51.160;4.146;2023-11-22T07:10:02;11.10;99.90
43346;DHT22;28937;51.160;4.146;2023-11-22T07:12:27;11.10;99.90
43346;DHT22;28937;51.160;4.146;2023-11-22T07:14:54;11.10;99.90
43346;DHT22;28937;51.160;4.146;2023-11-22T07:17:19;11.10;99.90
43346;DHT22;28937;51.160;4.146;2023-11-22T07:19:47;11.10;99.90
43346;DHT22;28937;51.160;4.146;2023-11-22T07:22:13;11.10;99.90
43346;DHT22;28937;51.160;4.146;2023-11-22T07:24:43;11.10;99.90
43346;DHT22;28937;51.160;4.146;2023-11-22T07:27:12;11.20;99.90
43346;DHT22;28937;51.160;4.146;2023-11-22T07:29:40;11.10;99.90
43346;DHT22;28937;51.160;4.146;2023-11-22T07:32:06;11.10;99.90
43346;DHT22;28937;51.160;4.146;2023-11-22T07:34:32;11.10;99.90
43346;DHT22;28937;51.160;4.146;2023-11-22T07:36:59;11.10;99.90
43346;DHT22;28937;51.160;4.146;2023-11-22T07:39:24;11.10;99.90
43346;DHT22;28937;51.160;4.146;2023-11-22T07:41:53;11.00;99.90
43346;DHT22;28937;51.160;4.146;2023-11-22T07:44:23;11.00;99.90
43346;DHT22;28937;51.160;4.146;2023-11-22T07:46:50;11.10;99.90
43346;DHT22;28937;51.160;4.146;2023-11-22T07:49:17;11.10;99.90
43346;DHT22;28937;51.160;4.146;2023-11-22T07:51:44;11.10;99.90
43346;DHT22;28937;51.160;4.146;2023-11-22T07:54:10;11.10;99.90
43346;DHT22;28937;51.160;4.146;2023-11-22T07:56:43;11.00;99.90
43346;DHT22;28937;51.160;4.146;2023-11-22T07:59:10;10.90;99.90
43346;DHT22;28937;51.160;4.146;2023-11-22T08:01:38;11.00;99.90
43346;DHT22;28937;51.160;4.146;2023-11-22T08:04:04;11.00;99.90
43346;DHT22;28937;51.160;4.146;2023-11-22T08:06:33;11.00;99.90
43346;DHT22;28937;51.160;4.146;2023-11-22T08:09:00;11.00;99.90
43346;DHT22;28937;51.160;4.146;2023-11-22T08:11:27;10.90;99.90
43346;DHT22;28937;51.160;4.146;2023-11-22T08:13:53;11.00;99.90
43346;DHT22;28937;51.160;4.146;2023-11-22T08:16:20;11.00;99.90
43346;DHT22;28937;51.160;4.146;2023-11-22T08:18:46;11.10;99.90
43346;DHT22;28937;51.160;4.146;2023-11-22T08:21:11;11.20;99.90
43346;DHT22;28937;51.160;4.146;2023-11-22T08:23:37;11.20;99.90
43346;DHT22;28937;51.160;4.146;2023-11-22T08:26:03;11.20;99.90
43346;DHT22;28937;51.160;4.146;2023-11-22T08:28:30;11.10;99.90
43346;DHT22;28937;51.160;4.146;2023-11-22T08:30:55;11.20;99.90
43346;DHT22;28937;51.160;4.146;2023-11-22T08:33:21;11.10;99.90
43346;DHT22;28937;51.160;4.146;2023-11-22T08:35:47;11.00;99.90
43346;DHT22;28937;51.160;4.146;2023-11-22T08:38:16;11.00;99.90
43346;DHT22;28937;51.160;4.146;2023-11-22T08:40:43;10.90;99.90
43346;DHT22;28937;51.160;4.146;2023-11-22T08:43:08;10.80;99.90
43346;DHT22;28937;51.160;4.146;2023-11-22T08:45:34;10.90;99.90
43346;DHT22;28937;51.160;4.146;2023-11-22T08:48:00;10.90;99.90
43346;DHT22;28937;51.160;4.146;2023-11-22T08:50:26;11.00;99.90
43346;DHT22;28937;51.160;4.146;2023-11-22T08:52:51;11.00;99.90
43346;DHT22;28937;51.160;4.146;2023-11-22T08:55:19;11.10;99.90
43346;DHT22;28937;51.160;4.146;2023-11-22T08:57:48;11.10;99.90
43346;DHT22;28937;51.160;4.146;2023-11-22T09:00:14;11.00;99.90
43346;DHT22;28937;51.160;4.146;2023-11-22T09:02:40;11.10;99.90
43346;DHT22;28937;51.160;4.146;2023-11-22T09:05:06;11.10;99.90
43346;DHT22;28937;51.160;4.146;2023-11-22T09:07:38;11.10;99.90
43346;DHT22;28937;51.160;4.146;2023-11-22T09:10:05;11.00;99.90
43346;DHT22;28937;51.160;4.146;2023-11-22T09:12:39;11.00;99.90
43346;DHT22;28937;51.160;4.146;2023-11-22T09:15:10;11.10;99.90
43346;DHT22;28937;51.160;4.146;2023-11-22T09:17:42;11.10;99.90
43346;DHT22;28937;51.160;4.146;2023-11-22T09:20:15;11.20;99.90
43346;DHT22;28937;51.160;4.146;2023-11-22T09:22:47;11.20;99.90
43346;DHT22;28937;51.160;4.146;2023-11-22T09:25:22;11.10;99.90
43346;DHT22;28937;51.160;4.146;2023-11-22T09:27:49;11.20;99.90
43346;DHT22;28937;51.160;4.146;2023-11-22T09:30:19;11.20;99.90
43346;DHT22;28937;51.160;4.146;2023-11-22T09:35:32;11.20;99.90
43346;DHT22;28937;51.160;4.146;2023-11-22T09:38:02;11.20;99.90
43346;DHT22;28937;51.160;4.146;2023-11-22T09:40:29;11.10;99.90
43346;DHT22;28937;51.160;4.146;2023-11-22T09:43:00;11.00;99.90
43346;DHT22;28937;51.160;4.146;2023-11-22T09:45:29;11.10;99.90
43346;DHT22;28937;51.160;4.146;2023-11-22T09:47:55;11.10;99.90
43346;DHT22;28937;51.160;4.146;2023-11-22T09:50:54;11.00;99.90
43346;DHT22;28937;51.160;4.146;2023-11-22T09:53:36;11.00;99.90
43346;DHT22;28937;51.160;4.146;2023-11-22T09:56:03;11.00;99.90
43346;DHT22;28937;51.160;4.146;2023-11-22T09:58:30;11.10;99.90
43346;DHT22;28937;51.160;4.146;2023-11-22T10:01:01;11.10;99.90
43346;DHT22;28937;51.160;4.146;2023-11-22T10:03:28;11.00;99.90
43346;DHT22;28937;51.160;4.146;2023-11-22T10:05:56;11.00;99.90
43346;DHT22;28937;51.160;4.146;2023-11-22T10:08:23;11.00;99.90
43346;DHT22;28937;51.160;4.146;2023-11-22T10:10:50;11.00;99.90
43346;DHT22;28937;51.160;4.146;2023-11-22T10:13:17;11.00;99.90
43346;DHT22;28937;51.160;4.146;2023-11-22T10:15:48;10.90;99.90
43346;DHT22;28937;51.160;4.146;2023-11-22T10:18:14;10.90;99.90
43346;DHT22;28937;51.160;4.146;2023-11-22T10:20:41;11.00;99.90
43346;DHT22;28937;51.160;4.146;2023-11-22T10:23:13;11.00;99.90
43346;DHT22;28937;51.160;4.146;2023-11-22T10:25:46;11.00;99.90
43346;DHT22;28937;51.160;4.146;2023-11-22T10:28:22;11.00;99.90
43346;DHT22;28937;51.160;4.146;2023-11-22T10:30:49;11.00;99.90
43346;DHT22;28937;51.160;4.146;2023-11-22T10:33:17;11.00;99.90
43346;DHT22;28937;51.160;4.146;2023-11-22T10:35:47;11.00;99.90
43346;DHT22;28937;51.160;4.146;2023-11-22T10:38:14;11.00;99.90
43346;DHT22;28937;51.160;4.146;2023-11-22T10:40:41;11.00;99.90
43346;DHT22;28937;51.160;4.146;2023-11-22T10:43:16;11.00;99.90
43346;DHT22;28937;51.160;4.146;2023-11-22T10:45:43;10.90;99.90
43346;DHT22;28937;51.160;4.146;2023-11-22T10:48:17;10.90;99.90
43346;DHT22;28937;51.160;4.146;2023-11-22T10:50:45;10.90;99.90
43346;DHT22;28937;51.160;4.146;2023-11-22T10:53:12;11.00;99.90
43346;DHT22;28937;51.160;4.146;2023-11-22T10:55:42;11.00;99.90
43346;DHT22;28937;51.160;4.146;2023-11-22T10:58:11;11.00;99.90
43346;DHT22;28937;51.160;4.146;2023-11-22T11:00:41;11.00;99.90
43346;DHT22;28937;51.160;4.146;2023-11-22T11:03:14;11.00;99.90
43346;DHT22;28937;51.160;4.146;2023-11-22T11:05:43;11.00;99.90
43346;DHT22;28937;51.160;4.146;2023-11-22T11:08:14;11.10;99.90
43346;DHT22;28937;51.160;4.146;2023-11-22T11:10:43;11.10;99.90
43346;DHT22;28937;51.160;4.146;2023-11-22T11:13:10;11.10;99.90
43346;DHT22;28937;51.160;4.146;2023-11-22T11:17:32;11.90;99.90
43346;DHT22;28937;51.160;4.146;2023-11-22T11:19:58;11.40;99.90
43346;DHT22;28937;51.160;4.146;2023-11-22T11:22:23;11.00;99.90
43346;DHT22;28937;51.160;4.146;2023-11-22T11:25:01;10.80;99.90
43346;DHT22;28937;51.160;4.146;2023-11-22T11:27:28;10.70;99.90
43346;DHT22;28937;51.160;4.146;2023-11-22T11:29:54;10.60;99.90
43346;DHT22;28937;51.160;4.146;2023-11-22T11:32:32;10.60;99.90
43346;DHT22;28937;51.160;4.146;2023-11-22T11:34:58;10.60;99.90
43346;DHT22;28937;51.160;4.146;2023-11-22T11:37:31;10.60;99.90
43346;DHT22;28937;51.160;4.146;2023-11-22T11:39:58;10.70;99.90
43346;DHT22;28937;51.160;4.146;2023-11-22T11:42:26;10.70;99.90
43346;DHT22;28937;51.160;4.146;2023-11-22T11:45:05;10.80;99.90
43346;DHT22;28937;51.160;4.146;2023-11-22T11:47:32;10.90;99.90
43346;DHT22;28937;51.160;4.146;2023-11-22T11:49:58;10.90;99.90
43346;DHT22;28937;51.160;4.146;2023-11-22T11:52:27;10.90;99.90
43346;DHT22;28937;51.160;4.146;2023-11-22T11:54:52;10.90;99.90
43346;DHT22;28937;51.160;4.146;2023-11-22T11:57:18;10.90;99.90
43346;DHT22;28937;51.160;4.146;2023-11-22T11:59:44;11.00;99.90
43346;DHT22;28937;51.160;4.146;2023-11-22T12:02:11;11.00;99.90
43346;DHT22;28937;51.160;4.146;2023-11-22T12:04:37;11.00;99.90
43346;DHT22;28937;51.160;4.146;2023-11-22T12:07:02;11.00;99.90
43346;DHT22;28937;51.160;4.146;2023-11-22T12:09:28;10.90;99.90
43346;DHT22;28937;51.160;4.146;2023-11-22T12:11:55;10.90;99.90
43346;DHT22;28937;51.160;4.146;2023-11-22T12:14:23;10.90;99.90
43346;DHT22;28937;51.160;4.146;2023-11-22T12:16:52;10.80;99.90
43346;DHT22;28937;51.160;4.146;2023-11-22T12:19:28;10.80;99.90
43346;DHT22;28937;51.160;4.146;2023-11-22T12:21:53;10.70;99.90
43346;DHT22;28937;51.160;4.146;2023-11-22T12:24:20;10.70;99.90
43346;DHT22;28937;51.160;4.146;2023-11-22T12:26:46;10.70;99.90
43346;DHT22;28937;51.160;4.146;2023-11-22T12:29:15;10.70;99.90
43346;DHT22;28937;51.160;4.146;2023-11-22T12:31:45;10.70;99.90
43346;DHT22;28937;51.160;4.146;2023-11-22T12:34:15;10.70;99.90
43346;DHT22;28937;51.160;4.146;2023-11-22T12:36:42;10.70;99.90
43346;DHT22;28937;51.160;4.146;2023-11-22T12:39:10;10.70;99.90
43346;DHT22;28937;51.160;4.146;2023-11-22T12:41:43;10.70;99.90
43346;DHT22;28937;51.160;4.146;2023-11-22T12:44:11;10.70;99.90
43346;DHT22;28937;51.160;4.146;2023-11-22T12:46:46;10.70;99.90
43346;DHT22;28937;51.160;4.146;2023-11-22T12:49:16;10.70;99.90
43346;DHT22;28937;51.160;4.146;2023-11-22T12:51:48;10.70;99.90
43346;DHT22;28937;51.160;4.146;2023-11-22T12:54:15;10.70;99.90
43346;DHT22;28937;51.160;4.146;2023-11-22T12:56:41;10.70;99.90
43346;DHT22;28937;51.160;4.146;2023-11-22T12:59:07;10.70;99.90
43346;DHT22;28937;51.160;4.146;2023-11-22T13:01:34;10.70;99.90
43346;DHT22;28937;51.160;4.146;2023-11-22T13:04:00;10.70;99.90
43346;DHT22;28937;51.160;4.146;2023-11-22T13:06:26;10.70;99.90
43346;DHT22;28937;51.160;4.146;2023-11-22T13:08:52;10.70;99.90
43346;DHT22;28937;51.160;4.146;2023-11-22T13:11:22;10.70;99.90
43346;DHT22;28937;51.160;4.146;2023-11-22T13:13:49;10.70;99.90
43346;DHT22;28937;51.160;4.146;2023-11-22T13:16:15;10.70;99.90
43346;DHT22;28937;51.160;4.146;2023-11-22T13:18:44;10.70;99.90
43346;DHT22;28937;51.160;4.146;2023-11-22T13:21:10;10.70;99.90
43346;DHT22;28937;51.160;4.146;2023-11-22T13:23:36;10.70;99.90
43346;DHT22;28937;51.160;4.146;2023-11-22T13:26:01;10.70;99.90
43346;DHT22;28937;51.160;4.146;2023-11-22T13:28:27;10.80;99.90
43346;DHT22;28937;51.160;4.146;2023-11-22T13:30:53;10.80;99.90
43346;DHT22;28937;51.160;4.146;2023-11-22T13:33:19;10.80;99.90
43346;DHT22;28937;51.160;4.146;2023-11-22T13:35:45;10.80;99.90
43346;DHT22;28937;51.160;4.146;2023-11-22T13:38:12;10.80;99.90
43346;DHT22;28937;51.160;4.146;2023-11-22T13:40:39;10.80;99.90
43346;DHT22;28937;51.160;4.146;2023-11-22T13:43:05;10.80;99.90
43346;DHT22;28937;51.160;4.146;2023-11-22T13:45:32;10.80;99.90
43346;DHT22;28937;51.160;4.146;2023-11-22T13:47:58;10.90;99.90
43346;DHT22;28937;51.160;4.146;2023-11-22T13:50:29;10.90;99.90
43346;DHT22;28937;51.160;4.146;2023-11-22T13:52:55;10.90;99.90
43346;DHT22;28937;51.160;4.146;2023-11-22T13:55:21;10.90;99.90
43346;DHT22;28937;51.160;4.146;2023-11-22T13:58:00;10.90;99.90
43346;DHT22;28937;51.160;4.146;2023-11-22T14:00:27;10.90;99.90
43346;DHT22;28937;51.160;4.146;2023-11-22T14:02:58;10.90;99.90
43346;DHT22;28937;51.160;4.146;2023-11-22T14:05:30;10.90;99.90
43346;DHT22;28937;51.160;4.146;2023-11-22T14:07:55;10.90;99.90
43346;DHT22;28937;51.160;4.146;2023-11-22T14:10:21;10.90;99.90
43346;DHT22;28937;51.160;4.146;2023-11-22T14:12:48;11.00;99.90
43346;DHT22;28937;51.160;4.146;2023-11-22T14:15:15;11.00;99.90
43346;DHT22;28937;51.160;4.146;2023-11-22T14:17:41;10.90;99.90
43346;DHT22;28937;51.160;4.146;2023-11-22T14:20:10;10.90;99.90
43346;DHT22;28937;51.160;4.146;2023-11-22T14:22:37;10.90;99.90
43346;DHT22;28937;51.160;4.146;2023-11-22T14:25:03;10.90;99.90
43346;DHT22;28937;51.160;4.146;2023-11-22T14:27:33;10.90;99.90
43346;DHT22;28937;51.160;4.146;2023-11-22T14:29:59;10.90;99.90
43346;DHT22;28937;51.160;4.146;2023-11-22T14:32:25;11.00;99.90
43346;DHT22;28937;51.160;4.146;2023-11-22T14:34:51;11.00;99.90
43346;DHT22;28937;51.160;4.146;2023-11-22T14:37:19;11.00;99.90
43346;DHT22;28937;51.160;4.146;2023-11-22T14:39:45;11.00;99.90
43346;DHT22;28937;51.160;4.146;2023-11-22T14:42:10;11.00;99.90
43346;DHT22;28937;51.160;4.146;2023-11-22T14:44:37;11.00;99.90
43346;DHT22;28937;51.160;4.146;2023-11-22T14:47:03;11.00;99.90
43346;DHT22;28937;51.160;4.146;2023-11-22T14:49:38;11.00;99.90
43346;DHT22;28937;51.160;4.146;2023-11-22T14:52:03;11.00;99.90
43346;DHT22;28937;51.160;4.146;2023-11-22T14:54:29;10.90;99.90
43346;DHT22;28937;51.160;4.146;2023-11-22T14:56:55;11.00;99.90
43346;DHT22;28937;51.160;4.146;2023-11-22T14:59:25;11.00;99.90
43346;DHT22;28937;51.160;4.146;2023-11-22T15:01:51;11.00;99.90
43346;DHT22;28937;51.160;4.146;2023-11-22T15:04:17;11.00;99.90
43346;DHT22;28937;51.160;4.146;2023-11-22T15:06:43;10.90;99.90
43346;DHT22;28937;51.160;4.146;2023-11-22T15:09:10;11.00;99.90
43346;DHT22;28937;51.160;4.146;2023-11-22T15:11:41;11.00;99.90
43346;DHT22;28937;51.160;4.146;2023-11-22T15:14:06;11.00;99.90
43346;DHT22;28937;51.160;4.146;2023-11-22T15:16:32;11.00;99.90
43346;DHT22;28937;51.160;4.146;2023-11-22T15:18:58;11.00;99.90
43346;DHT22;28937;51.160;4.146;2023-11-22T15:21:30;11.00;99.90
43346;DHT22;28937;51.160;4.146;2023-11-22T15:23:56;11.00;99.90
43346;DHT22;28937;51.160;4.146;2023-11-22T15:26:22;11.00;99.90
43346;DHT22;28937;51.160;4.146;2023-11-22T15:28:48;11.00;99.90
43346;DHT22;28937;51.160;4.146;2023-11-22T15:31:17;11.10;99.90
43346;DHT22;28937;51.160;4.146;2023-11-22T15:33:44;11.00;99.90